Time;durP1;ratioP1;P1;durP2;ratioP2;P2;SDS_P1;SDS_P2;PMS_P1;PMS_P2;Temp;Humidity;BMP_temperature;BMP_pressure;BME280_temperature;BME280_humidity;BME280_pressure;Samples;Min_cycle;Max_cycle;Signal;HPM_P1;HPM_P2
2022/05/11 00:01:31;;;;;;;6.03;3.10;;;;;;;;;;5071738;28;20469;-57
2022/05/11 00:03:58;;;;;;;7.13;3.80;;;;;;;;;;5072269;28;20423;-57
2022/05/11 00:06:25;;;;;;;3.80;2.40;;;;;;;;;;5072713;28;20416;-57
2022/05/11 00:08:52;;;;;;;5.77;2.63;;;;;;;;;;5072203;28;20438;-58
2022/05/11 00:11:18;;;;;;;3.13;2.90;;;;;;;;;;5071614;28;20404;-57
2022/05/11 00:13:44;;;;;;;3.33;3.03;;;;;;;;;;5072144;28;20430;-57
2022/05/11 00:16:10;;;;;;;2.87;2.53;;;;;;;;;;5072219;28;20393;-57
2022/05/11 00:18:37;;;;;;;4.30;3.40;;;;;;;;;;5071927;28;20441;-57
2022/05/11 00:21:03;;;;;;;5.00;3.07;;;;;;;;;;5071284;28;20976;-57
2022/05/11 00:23:30;;;;;;;2.53;2.33;;;;;;;;;;5072105;28;20429;-57
2022/05/11 00:25:56;;;;;;;3.10;2.83;;;;;;;;;;5072029;28;20369;-57
2022/05/11 00:28:22;;;;;;;4.07;3.40;;;;;;;;;;5071983;28;20399;-57
2022/05/11 00:30:48;;;;;;;3.73;3.30;;;;;;;;;;5071301;28;20417;-57
2022/05/11 00:33:15;;;;;;;5.80;3.30;;;;;;;;;;5071842;28;20422;-56
2022/05/11 00:35:41;;;;;;;3.37;2.93;;;;;;;;;;5071615;28;20454;-57
2022/05/11 00:38:07;;;;;;;3.50;3.30;;;;;;;;;;5070673;28;20455;-57
2022/05/11 00:40:38;;;;;;;3.80;2.90;;;;;;;;;;5071819;28;20453;-56
2022/05/11 00:43:04;;;;;;;3.37;3.10;;;;;;;;;;5071392;28;20451;-57
2022/05/11 00:45:30;;;;;;;3.50;3.10;;;;;;;;;;5071880;28;20850;-57
2022/05/11 00:47:59;;;;;;;3.43;2.97;;;;;;;;;;5071696;28;20405;-57
2022/05/11 00:50:34;;;;;;;8.93;3.03;;;;;;;;;;5071727;28;20411;-57
2022/05/11 00:53:09;;;;;;;3.30;2.73;;;;;;;;;;5071737;28;20908;-56
2022/05/11 00:55:36;;;;;;;3.20;2.90;;;;;;;;;;5071390;28;20944;-57
2022/05/11 00:58:04;;;;;;;6.90;3.40;;;;;;;;;;5071024;28;20436;-57
2022/05/11 01:00:31;;;;;;;3.97;3.63;;;;;;;;;;5071566;28;20432;-57
2022/05/11 01:03:11;;;;;;;6.10;3.30;;;;;;;;;;5069832;28;20422;-57
2022/05/11 01:05:37;;;;;;;3.53;3.27;;;;;;;;;;5071182;28;20883;-56
2022/05/11 01:08:03;;;;;;;4.60;3.40;;;;;;;;;;5071700;28;20419;-57
2022/05/11 01:10:32;;;;;;;4.60;2.93;;;;;;;;;;5071592;28;20415;-57
2022/05/11 01:13:00;;;;;;;5.20;3.20;;;;;;;;;;5070762;28;20408;-56
2022/05/11 01:15:27;;;;;;;4.47;3.03;;;;;;;;;;5071586;28;20494;-57
2022/05/11 01:17:53;;;;;;;3.50;3.00;;;;;;;;;;5071638;28;20930;-56
2022/05/11 01:20:21;;;;;;;2.97;2.77;;;;;;;;;;5071478;28;20403;-57
2022/05/11 01:22:58;;;;;;;3.33;3.03;;;;;;;;;;5070819;28;20399;-57
2022/05/11 01:25:24;;;;;;;4.90;3.00;;;;;;;;;;5071554;28;21066;-56
2022/05/11 01:27:50;;;;;;;4.20;2.90;;;;;;;;;;5071447;28;20500;-56
2022/05/11 01:30:20;;;;;;;13.57;8.97;;;;;;;;;;5071358;28;20472;-56
2022/05/11 01:32:48;;;;;;;4.23;3.10;;;;;;;;;;5072000;28;20402;-57
2022/05/11 01:35:17;;;;;;;4.90;2.90;;;;;;;;;;5075028;28;20746;-57
2022/05/11 01:37:49;;;;;;;3.63;2.83;;;;;;;;;;5075140;28;20535;-56
2022/05/11 01:40:15;;;;;;;4.67;2.93;;;;;;;;;;5075176;28;20407;-57
2022/05/11 01:42:41;;;;;;;4.00;3.10;;;;;;;;;;5074375;28;20391;-57
2022/05/11 01:45:08;;;;;;;3.10;2.80;;;;;;;;;;5075013;28;20378;-56
2022/05/11 01:47:33;;;;;;;5.97;3.23;;;;;;;;;;5074991;28;20411;-57
2022/05/11 01:50:01;;;;;;;3.60;3.30;;;;;;;;;;5075000;28;20450;-57
2022/05/11 01:52:27;;;;;;;7.23;3.27;;;;;;;;;;5074182;28;20431;-56
2022/05/11 01:54:53;;;;;;;2.80;2.60;;;;;;;;;;5074789;28;20885;-57
2022/05/11 01:57:19;;;;;;;4.77;3.37;;;;;;;;;;5074728;28;20509;-57
2022/05/11 01:59:46;;;;;;;2.93;2.50;;;;;;;;;;5074669;28;20434;-57
2022/05/11 02:02:11;;;;;;;5.10;3.53;;;;;;;;;;5074232;28;20473;-56
2022/05/11 02:10:07;;;;;;;3.33;3.03;;;;;;;;;;5074665;28;20445;-56
2022/05/11 02:12:33;;;;;;;8.43;3.10;;;;;;;;;;5073826;28;20374;-57
2022/05/11 02:14:58;;;;;;;3.37;3.07;;;;;;;;;;5074503;28;20490;-57
2022/05/11 02:17:24;;;;;;;5.40;3.67;;;;;;;;;;5074446;28;20823;-57
2022/05/11 02:19:51;;;;;;;5.90;4.10;;;;;;;;;;5074301;28;20400;-56
2022/05/11 02:22:17;;;;;;;4.87;3.23;;;;;;;;;;5074042;28;20449;-57
2022/05/11 02:24:43;;;;;;;4.27;3.30;;;;;;;;;;5074343;28;20430;-56
2022/05/11 02:27:09;;;;;;;3.80;3.47;;;;;;;;;;5074434;28;20403;-56
2022/05/11 02:29:35;;;;;;;3.37;3.07;;;;;;;;;;5074237;28;20402;-56
2022/05/11 02:32:02;;;;;;;4.40;4.00;;;;;;;;;;5073524;28;20469;-56
2022/05/11 02:37:13;;;;;;;8.07;3.67;;;;;;;;;;5074083;28;20515;-56
2022/05/11 02:39:39;;;;;;;3.53;3.23;;;;;;;;;;5074060;28;20783;-57
2022/05/11 02:42:05;;;;;;;7.20;3.50;;;;;;;;;;5073434;28;20398;-56
2022/05/11 02:44:31;;;;;;;4.83;3.80;;;;;;;;;;5073524;28;20431;-56
2022/05/11 02:46:57;;;;;;;5.60;3.10;;;;;;;;;;5073910;28;20415;-56
2022/05/11 02:49:23;;;;;;;3.83;3.43;;;;;;;;;;5073805;28;20780;-57
2022/05/11 02:51:49;;;;;;;8.70;3.23;;;;;;;;;;5073157;28;20907;-57
2022/05/11 02:54:15;;;;;;;3.57;3.27;;;;;;;;;;5073765;28;20423;-57
2022/05/11 02:56:41;;;;;;;3.63;3.20;;;;;;;;;;5073807;28;20378;-57
2022/05/11 02:59:08;;;;;;;2.97;2.77;;;;;;;;;;5073570;28;20502;-56
2022/05/11 03:01:34;;;;;;;7.60;3.40;;;;;;;;;;5073067;28;20411;-56
2022/05/11 03:04:00;;;;;;;3.67;3.37;;;;;;;;;;5073562;28;20423;-56
2022/05/11 03:06:26;;;;;;;4.80;3.53;;;;;;;;;;5073629;28;20416;-57
2022/05/11 03:08:52;;;;;;;4.63;3.07;;;;;;;;;;5073417;28;20382;-56
2022/05/11 03:11:20;;;;;;;5.20;3.50;;;;;;;;;;5072814;28;20822;-56
2022/05/11 03:13:46;;;;;;;3.37;3.07;;;;;;;;;;5073206;28;20457;-56
2022/05/11 03:16:12;;;;;;;4.73;3.23;;;;;;;;;;5073453;28;20410;-57
2022/05/11 03:18:38;;;;;;;6.97;3.50;;;;;;;;;;5073215;28;20831;-57
2022/05/11 03:21:04;;;;;;;3.70;3.40;;;;;;;;;;5072940;28;20406;-56
2022/05/11 03:23:30;;;;;;;6.87;3.63;;;;;;;;;;5073269;28;20419;-56
2022/05/11 03:25:57;;;;;;;5.40;4.30;;;;;;;;;;5073122;28;20444;-56
2022/05/11 03:28:23;;;;;;;4.53;3.50;;;;;;;;;;5072983;28;20406;-55
2022/05/11 03:30:49;;;;;;;5.67;3.33;;;;;;;;;;5072393;28;20403;-56
2022/05/11 03:36:00;;;;;;;4.17;3.87;;;;;;;;;;5072943;28;20395;-56
2022/05/11 03:38:26;;;;;;;4.30;3.90;;;;;;;;;;5072810;28;20455;-56
2022/05/11 03:40:51;;;;;;;3.80;3.50;;;;;;;;;;5072180;28;20751;-56
2022/05/11 03:43:20;;;;;;;4.13;3.23;;;;;;;;;;5072796;28;20792;-56
2022/05/11 03:45:47;;;;;;;4.77;3.43;;;;;;;;;;5072884;28;20407;-56
2022/05/11 03:48:16;;;;;;;4.97;3.20;;;;;;;;;;5072797;28;20886;-56
2022/05/11 03:50:43;;;;;;;6.30;3.50;;;;;;;;;;5072652;28;20401;-56
2022/05/11 03:53:09;;;;;;;4.37;4.03;;;;;;;;;;5072150;28;20847;-56
2022/05/11 03:55:35;;;;;;;3.43;3.13;;;;;;;;;;5072007;28;20816;-56
2022/05/11 03:58:01;;;;;;;4.57;3.93;;;;;;;;;;5072489;28;20455;-56
2022/05/11 04:00:32;;;;;;;5.10;3.77;;;;;;;;;;5072463;28;20498;-56
2022/05/11 04:02:58;;;;;;;4.10;3.70;;;;;;;;;;5071792;28;20431;-56
2022/05/11 04:05:25;;;;;;;4.43;4.03;;;;;;;;;;5072543;28;20377;-56
2022/05/11 04:07:51;;;;;;;3.50;3.20;;;;;;;;;;5072325;28;20405;-56
2022/05/11 04:10:17;;;;;;;3.93;3.53;;;;;;;;;;5072275;28;20415;-57
2022/05/11 04:12:44;;;;;;;4.20;3.80;;;;;;;;;;5071623;28;20410;-56
2022/05/11 04:15:11;;;;;;;6.20;3.97;;;;;;;;;;5072487;28;20490;-56
2022/05/11 04:17:37;;;;;;;3.97;3.60;;;;;;;;;;5072151;28;20912;-56
2022/05/11 04:20:09;;;;;;;5.77;4.03;;;;;;;;;;5072155;28;20407;-56
2022/05/11 04:22:35;;;;;;;5.27;3.93;;;;;;;;;;5071461;28;20454;-56
2022/05/11 04:25:01;;;;;;;7.93;3.80;;;;;;;;;;5072394;28;20464;-57
2022/05/11 04:27:28;;;;;;;8.90;4.60;;;;;;;;;;5072282;28;20373;-56
2022/05/11 04:29:54;;;;;;;5.30;4.30;;;;;;;;;;5072062;28;20407;-56
2022/05/11 04:32:20;;;;;;;7.17;4.60;;;;;;;;;;5071397;28;20407;-57
2022/05/11 04:34:46;;;;;;;8.73;5.00;;;;;;;;;;5071954;28;20426;-56
2022/05/11 04:37:12;;;;;;;7.23;4.83;;;;;;;;;;5071686;28;20430;-56
2022/05/11 04:39:39;;;;;;;7.80;4.13;;;;;;;;;;5071953;28;20398;-56
2022/05/11 04:42:06;;;;;;;9.20;4.43;;;;;;;;;;5071169;28;20385;-56
2022/05/11 04:44:32;;;;;;;8.73;4.70;;;;;;;;;;5071890;28;20418;-57
2022/05/11 04:46:58;;;;;;;5.77;4.13;;;;;;;;;;5071968;28;20399;-56
2022/05/11 04:49:24;;;;;;;5.10;4.00;;;;;;;;;;5071893;28;20371;-56
2022/05/11 04:51:51;;;;;;;7.37;4.77;;;;;;;;;;5071061;28;20778;-56
2022/05/11 04:54:17;;;;;;;5.60;4.60;;;;;;;;;;5071821;28;20421;-56
2022/05/11 04:56:43;;;;;;;5.70;4.33;;;;;;;;;;5071767;28;20763;-56
2022/05/11 04:59:12;;;;;;;5.63;4.20;;;;;;;;;;5071738;28;20453;-56
2022/05/11 05:01:38;;;;;;;7.13;5.30;;;;;;;;;;5071218;28;20536;-56
2022/05/11 05:04:05;;;;;;;6.07;4.63;;;;;;;;;;5071676;28;20445;-56
2022/05/11 05:06:34;;;;;;;5.67;4.10;;;;;;;;;;5072698;28;20912;-56
2022/05/11 05:09:04;;;;;;;3.97;3.60;;;;;;;;;;5075704;28;20398;-56
2022/05/11 05:11:31;;;;;;;6.73;4.20;;;;;;;;;;5075134;28;20534;-56
2022/05/11 05:13:57;;;;;;;5.40;3.97;;;;;;;;;;5075600;28;20932;-56
2022/05/11 05:16:23;;;;;;;5.73;4.10;;;;;;;;;;5075602;28;20499;-56
2022/05/11 05:18:49;;;;;;;5.27;4.50;;;;;;;;;;5075475;28;20434;-56
2022/05/11 05:21:15;;;;;;;7.00;4.20;;;;;;;;;;5075150;28;20466;-56
2022/05/11 05:23:41;;;;;;;4.53;4.10;;;;;;;;;;5075612;28;20423;-56
2022/05/11 05:26:07;;;;;;;6.30;3.97;;;;;;;;;;5075356;28;20395;-56
2022/05/11 05:31:21;;;;;;;4.73;4.10;;;;;;;;;;5074740;28;20368;-56
2022/05/11 05:33:46;;;;;;;5.67;4.20;;;;;;;;;;5075316;28;20419;-56
2022/05/11 05:36:13;;;;;;;6.50;4.50;;;;;;;;;;5075198;28;20385;-56
2022/05/11 05:38:39;;;;;;;5.53;4.83;;;;;;;;;;5075118;28;20489;-56
2022/05/11 05:41:06;;;;;;;7.90;4.73;;;;;;;;;;5074428;28;20393;-56
2022/05/11 05:43:33;;;;;;;7.77;4.30;;;;;;;;;;5075157;28;20391;-56
2022/05/11 05:46:01;;;;;;;5.90;4.30;;;;;;;;;;5075102;28;20766;-56
2022/05/11 05:48:27;;;;;;;7.90;5.73;;;;;;;;;;5075054;28;20404;-56
2022/05/11 05:50:53;;;;;;;4.50;4.20;;;;;;;;;;5074310;28;20415;-56
2022/05/11 05:53:20;;;;;;;6.30;4.33;;;;;;;;;;5074858;28;20441;-56
2022/05/11 05:55:49;;;;;;;5.63;4.60;;;;;;;;;;5074935;28;20465;-56
2022/05/11 05:58:17;;;;;;;7.97;4.80;;;;;;;;;;5074790;28;20520;-56
2022/05/11 06:00:45;;;;;;;6.10;5.03;;;;;;;;;;5074596;28;20408;-56
2022/05/11 06:03:18;;;;;;;9.33;4.90;;;;;;;;;;5074717;28;20419;-56
2022/05/11 06:05:45;;;;;;;11.10;5.30;;;;;;;;;;5074930;28;20407;-56
2022/05/11 06:08:15;;;;;;;6.90;5.60;;;;;;;;;;5074793;28;20495;-56
2022/05/11 06:10:41;;;;;;;7.70;4.87;;;;;;;;;;5074306;28;20403;-56
2022/05/11 06:13:07;;;;;;;6.20;4.73;;;;;;;;;;5074151;28;20443;-56
2022/05/11 06:15:35;;;;;;;13.33;5.53;;;;;;;;;;5074263;28;20435;-56
2022/05/11 06:18:01;;;;;;;29.47;19.43;;;;;;;;;;5073847;28;20619;-57
2022/05/11 06:20:27;;;;;;;6.27;4.90;;;;;;;;;;5074366;28;20844;-56
2022/05/11 06:22:53;;;;;;;10.20;5.40;;;;;;;;;;5073614;28;20464;-56
2022/05/11 06:25:20;;;;;;;6.23;5.43;;;;;;;;;;5074348;28;20430;-56
2022/05/11 06:27:46;;;;;;;9.70;5.97;;;;;;;;;;5074258;28;20839;-56
2022/05/11 06:30:12;;;;;;;7.10;5.87;;;;;;;;;;5074212;28;20404;-57
2022/05/11 06:32:38;;;;;;;10.83;6.10;;;;;;;;;;5072261;28;20410;-57
2022/05/11 06:35:04;;;;;;;9.60;5.70;;;;;;;;;;5074093;28;20455;-57
2022/05/11 06:37:30;;;;;;;7.07;6.03;;;;;;;;;;5073717;28;20459;-57
2022/05/11 06:39:56;;;;;;;5.90;5.33;;;;;;;;;;5073263;28;20404;-56
2022/05/11 06:42:24;;;;;;;9.43;6.00;;;;;;;;;;5071904;28;20451;-56
2022/05/11 06:44:50;;;;;;;8.83;6.77;;;;;;;;;;5073322;28;20432;-56
2022/05/11 06:47:17;;;;;;;8.43;5.80;;;;;;;;;;5073344;28;20416;-56
2022/05/11 06:49:43;;;;;;;6.87;5.87;;;;;;;;;;5074068;28;20409;-56
2022/05/11 06:52:09;;;;;;;9.90;6.00;;;;;;;;;;5072965;28;20424;-56
2022/05/11 07:00:05;;;;;;;6.63;5.90;;;;;;;;;;5073051;28;20512;-56
2022/05/11 07:02:33;;;;;;;9.33;5.80;;;;;;;;;;5072074;28;20414;-56
2022/05/11 07:04:59;;;;;;;6.53;5.53;;;;;;;;;;5071623;28;20411;-57
2022/05/11 07:07:25;;;;;;;6.73;5.77;;;;;;;;;;5064212;28;20724;-57
2022/05/11 07:09:51;;;;;;;9.80;6.63;;;;;;;;;;5067274;28;20423;-57
2022/05/11 07:12:21;;;;;;;7.37;5.40;;;;;;;;;;5072602;28;20422;-56
2022/05/11 07:14:52;;;;;;;6.73;5.40;;;;;;;;;;5075819;28;20966;-56
2022/05/11 07:17:30;;;;;;;7.37;6.10;;;;;;;;;;5073663;28;20456;-55
2022/05/11 07:19:57;;;;;;;7.77;6.97;;;;;;;;;;5072392;28;20408;-56
2022/05/11 07:22:23;;;;;;;10.73;7.00;;;;;;;;;;5071802;28;20460;-57
2022/05/11 07:24:49;;;;;;;11.97;6.70;;;;;;;;;;5073338;28;20436;-56
2022/05/11 07:27:17;;;;;;;7.37;6.77;;;;;;;;;;5073926;28;20482;-56
2022/05/11 07:29:43;;;;;;;9.60;6.97;;;;;;;;;;5070058;28;20426;-57
2022/05/11 07:32:10;;;;;;;9.40;7.07;;;;;;;;;;5073049;28;20483;-56
2022/05/11 07:34:36;;;;;;;7.27;6.57;;;;;;;;;;5069905;28;20790;-57
2022/05/11 07:37:02;;;;;;;6.60;5.67;;;;;;;;;;5071224;28;20473;-57
2022/05/11 07:39:28;;;;;;;7.90;6.20;;;;;;;;;;5071376;28;20895;-57
2022/05/11 07:41:58;;;;;;;10.60;7.27;;;;;;;;;;5071842;28;20415;-57
2022/05/11 07:44:24;;;;;;;8.87;6.73;;;;;;;;;;5072388;28;20418;-58
2022/05/11 07:46:51;;;;;;;7.87;6.53;;;;;;;;;;5072796;28;20416;-57
2022/05/11 07:49:18;;;;;;;12.20;7.47;;;;;;;;;;5072501;28;20403;-58
2022/05/11 07:51:45;;;;;;;13.93;6.97;;;;;;;;;;5071389;28;20446;-58
2022/05/11 07:54:11;;;;;;;11.47;6.43;;;;;;;;;;5072516;28;20421;-58
2022/05/11 08:02:08;;;;;;;7.60;5.40;;;;;;;;;;5051928;28;20746;-55
2022/05/11 08:04:34;;;;;;;7.47;5.97;;;;;;;;;;5070337;28;20459;-57
2022/05/11 08:07:00;;;;;;;8.40;6.07;;;;;;;;;;5072422;28;20452;-58
2022/05/11 08:09:26;;;;;;;6.40;4.63;;;;;;;;;;5072036;28;20503;-57
2022/05/11 08:11:55;;;;;;;6.80;4.77;;;;;;;;;;5071912;28;20396;-57
2022/05/11 08:14:21;;;;;;;8.90;6.60;;;;;;;;;;5071902;28;20874;-57
2022/05/11 08:16:52;;;;;;;7.00;5.77;;;;;;;;;;5072253;28;20891;-57
2022/05/11 08:19:18;;;;;;;4.93;4.40;;;;;;;;;;5071732;28;20460;-58
2022/05/11 08:21:44;;;;;;;10.20;4.87;;;;;;;;;;5071255;28;20453;-58
2022/05/11 08:24:10;;;;;;;5.07;4.57;;;;;;;;;;5071958;28;20471;-58
2022/05/11 08:26:36;;;;;;;12.20;3.90;;;;;;;;;;5072185;28;20407;-58
2022/05/11 08:29:02;;;;;;;8.50;4.80;;;;;;;;;;5071731;28;20416;-57
2022/05/11 08:34:13;;;;;;;4.83;3.60;;;;;;;;;;5071799;28;20549;-58
2022/05/11 08:36:39;;;;;;;4.27;3.63;;;;;;;;;;5071666;28;20499;-58
2022/05/11 08:39:05;;;;;;;4.10;3.23;;;;;;;;;;5071783;28;20477;-58
2022/05/11 08:41:39;;;;;;;4.03;2.80;;;;;;;;;;5055249;28;20944;-58
2022/05/11 08:44:08;;;;;;;5.80;3.93;;;;;;;;;;5051759;28;20418;-57
2022/05/11 08:46:53;;;;;;;3.40;3.10;;;;;;;;;;5049975;28;20492;-58
2022/05/11 08:49:30;;;;;;;3.57;3.03;;;;;;;;;;5051766;28;20405;-58
2022/05/11 08:51:56;;;;;;;5.70;3.80;;;;;;;;;;5052829;28;20432;-59
2022/05/11 08:54:29;;;;;;;4.37;3.77;;;;;;;;;;5071669;28;20935;-59
2022/05/11 08:56:55;;;;;;;8.10;4.00;;;;;;;;;;5071490;28;20413;-58
2022/05/11 08:59:24;;;;;;;6.93;3.87;;;;;;;;;;5071513;28;20463;-58
2022/05/11 09:01:52;;;;;;;7.33;3.47;;;;;;;;;;5069095;28;20404;-57
2022/05/11 09:04:22;;;;;;;4.50;2.80;;;;;;;;;;5069946;28;20948;-57
2022/05/11 09:06:48;;;;;;;3.37;3.07;;;;;;;;;;5071107;28;20416;-57
2022/05/11 09:09:16;;;;;;;3.53;3.07;;;;;;;;;;5071394;28;20409;-58
2022/05/11 09:11:47;;;;;;;7.73;2.90;;;;;;;;;;5070571;28;20972;-57
2022/05/11 09:14:14;;;;;;;3.80;3.00;;;;;;;;;;5071188;28;20434;-57
2022/05/11 09:16:45;;;;;;;4.07;3.27;;;;;;;;;;5070420;28;20465;-57
2022/05/11 09:19:20;;;;;;;7.40;3.07;;;;;;;;;;5071090;28;20786;-57
2022/05/11 09:21:54;;;;;;;6.63;3.53;;;;;;;;;;5070400;28;20431;-57
2022/05/11 09:24:21;;;;;;;7.13;3.20;;;;;;;;;;5070889;28;20428;-58
2022/05/11 09:26:59;;;;;;;7.37;3.43;;;;;;;;;;5071464;28;20453;-58
2022/05/11 09:29:33;;;;;;;3.10;2.63;;;;;;;;;;5071191;28;20418;-58
2022/05/11 09:32:21;;;;;;;3.30;2.90;;;;;;;;;;5070917;28;20414;-58
2022/05/11 09:34:47;;;;;;;4.77;3.50;;;;;;;;;;5070902;28;20467;-57
2022/05/11 09:37:31;;;;;;;4.23;2.80;;;;;;;;;;5071429;28;20432;-59
2022/05/11 09:40:08;;;;;;;5.83;2.97;;;;;;;;;;5071026;28;20404;-57
2022/05/11 09:42:34;;;;;;;5.50;3.00;;;;;;;;;;5070158;28;20900;-59
2022/05/11 09:45:00;;;;;;;11.13;2.70;;;;;;;;;;5070941;28;20483;-58
2022/05/11 09:47:31;;;;;;;3.10;2.80;;;;;;;;;;5071344;28;20495;-59
2022/05/11 09:50:17;;;;;;;3.00;2.80;;;;;;;;;;5070478;28;20473;-58
2022/05/11 09:52:44;;;;;;;3.03;2.37;;;;;;;;;;5070375;28;20427;-58
2022/05/11 09:55:19;;;;;;;2.77;2.50;;;;;;;;;;5072143;28;20423;-58
2022/05/11 09:57:53;;;;;;;3.80;2.53;;;;;;;;;;5066904;28;20456;-57
2022/05/11 10:00:19;;;;;;;6.37;2.50;;;;;;;;;;5061552;28;20477;-57
2022/05/11 10:02:47;;;;;;;2.33;2.13;;;;;;;;;;5074448;28;20877;-58
2022/05/11 10:05:19;;;;;;;3.23;3.03;;;;;;;;;;5076224;28;20446;-59
2022/05/11 10:07:58;;;;;;;3.10;2.90;;;;;;;;;;5074943;28;20407;-59
2022/05/11 10:10:43;;;;;;;3.43;3.13;;;;;;;;;;5073929;28;20420;-57
2022/05/11 10:13:15;;;;;;;7.73;3.23;;;;;;;;;;5076027;28;20428;-60
2022/05/11 10:24:08;;;;;;;10.83;3.20;;;;;;;;;;5074447;28;20470;-59
2022/05/11 10:26:43;;;;;;;10.03;3.50;;;;;;;;;;5074262;28;20412;-59
2022/05/11 10:29:17;;;;;;;6.80;2.70;;;;;;;;;;5073960;28;20510;-59
2022/05/11 10:32:01;;;;;;;3.53;3.20;;;;;;;;;;5073802;28;20793;-59
2022/05/11 10:34:38;;;;;;;6.30;3.20;;;;;;;;;;5074701;28;20553;-57
2022/05/11 10:37:15;;;;;;;3.97;3.00;;;;;;;;;;5073751;28;20411;-59
2022/05/11 10:39:59;;;;;;;4.13;2.80;;;;;;;;;;5073910;28;20418;-58
2022/05/11 10:42:32;;;;;;;3.13;2.67;;;;;;;;;;5073192;28;20679;-57
2022/05/11 10:44:58;;;;;;;3.13;2.80;;;;;;;;;;5073935;28;20420;-58
2022/05/11 10:47:27;;;;;;;4.57;3.37;;;;;;;;;;5073483;28;20408;-58
2022/05/11 10:49:59;;;;;;;5.13;3.50;;;;;;;;;;5072001;28;20939;-56
2022/05/11 10:52:31;;;;;;;10.50;3.57;;;;;;;;;;5071005;28;20500;-58
2022/05/11 10:55:16;;;;;;;3.57;3.27;;;;;;;;;;5070043;28;21780;-58
2022/05/11 10:57:47;;;;;;;3.17;2.87;;;;;;;;;;5076621;28;20993;-56
2022/05/11 11:00:18;;;;;;;6.03;3.47;;;;;;;;;;5073134;28;20521;-58
2022/05/11 11:02:44;;;;;;;4.10;3.67;;;;;;;;;;5068720;28;20413;-57
2022/05/11 11:05:20;;;;;;;3.07;2.50;;;;;;;;;;5068223;28;20414;-57
2022/05/11 11:08:04;;;;;;;3.37;2.87;;;;;;;;;;5067185;28;20178;-58
2022/05/11 11:10:39;;;;;;;2.80;2.60;;;;;;;;;;5061240;28;20474;-57
2022/05/11 11:13:05;;;;;;;2.43;2.23;;;;;;;;;;5061879;28;20489;-58
2022/05/11 11:15:32;;;;;;;3.70;3.40;;;;;;;;;;5068029;28;20404;-56
2022/05/11 11:17:59;;;;;;;3.83;2.90;;;;;;;;;;5071338;28;21013;-57
2022/05/11 11:20:26;;;;;;;3.67;3.27;;;;;;;;;;5072640;28;20914;-59
2022/05/11 11:23:01;;;;;;;4.47;3.57;;;;;;;;;;5073626;28;20426;-59
2022/05/11 11:25:28;;;;;;;4.27;3.87;;;;;;;;;;5072927;28;20408;-59
2022/05/11 11:28:02;;;;;;;5.87;4.77;;;;;;;;;;5070661;28;20915;-57
2022/05/11 11:30:28;;;;;;;4.03;2.77;;;;;;;;;;5072860;28;20933;-56
2022/05/11 11:33:12;;;;;;;3.90;3.20;;;;;;;;;;5074031;28;20436;-57
2022/05/11 11:35:43;;;;;;;5.80;2.73;;;;;;;;;;5080984;28;20419;-58
2022/05/11 11:38:22;;;;;;;6.10;3.33;;;;;;;;;;5082504;28;20471;-58
2022/05/11 11:41:08;;;;;;;13.03;3.77;;;;;;;;;;5071968;28;20412;-59
2022/05/11 11:43:40;;;;;;;8.53;2.97;;;;;;;;;;5072098;28;20420;-58
2022/05/11 11:46:06;;;;;;;3.70;3.00;;;;;;;;;;5072208;28;20912;-59
2022/05/11 11:48:33;;;;;;;9.80;2.40;;;;;;;;;;5070629;28;20400;-59
2022/05/11 11:51:01;;;;;;;4.10;2.53;;;;;;;;;;5070888;28;20424;-58
2022/05/11 11:53:32;;;;;;;5.37;2.57;;;;;;;;;;5072683;28;20479;-58
2022/05/11 11:56:17;;;;;;;4.40;2.87;;;;;;;;;;5072356;28;20460;-56
2022/05/11 11:58:43;;;;;;;3.50;2.77;;;;;;;;;;5072375;28;20459;-58
2022/05/11 12:01:11;;;;;;;4.23;2.70;;;;;;;;;;5071457;28;20416;-57
2022/05/11 12:03:39;;;;;;;4.83;2.70;;;;;;;;;;5072185;28;20510;-57
2022/05/11 12:15:01;;;;;;;3.10;2.70;;;;;;;;;;5072090;28;20416;-58
2022/05/11 12:17:31;;;;;;;2.90;2.70;;;;;;;;;;5055125;28;20923;-59
2022/05/11 12:19:59;;;;;;;4.37;2.67;;;;;;;;;;5070138;28;20975;-58
2022/05/11 12:22:25;;;;;;;3.07;2.60;;;;;;;;;;5071692;28;20500;-59
2022/05/11 12:25:23;;;;;;;6.53;2.80;;;;;;;;;;5072105;28;20466;-58
2022/05/11 12:27:50;;;;;;;3.90;3.10;;;;;;;;;;5059798;28;20442;-58
2022/05/11 12:30:27;;;;;;;3.90;3.10;;;;;;;;;;5071132;28;20427;-59
2022/05/11 12:32:58;;;;;;;3.30;3.00;;;;;;;;;;5050844;28;20393;-58
2022/05/11 12:35:26;;;;;;;3.90;2.70;;;;;;;;;;5055394;28;20984;-58
2022/05/11 12:37:56;;;;;;;2.90;2.60;;;;;;;;;;5058861;28;20448;-56
2022/05/11 12:40:23;;;;;;;5.10;3.03;;;;;;;;;;5067505;28;20439;-58
2022/05/11 12:42:51;;;;;;;4.07;2.73;;;;;;;;;;5089613;28;20444;-58
2022/05/11 12:45:20;;;;;;;4.73;2.77;;;;;;;;;;5092000;28;20404;-59
2022/05/11 12:47:48;;;;;;;7.83;2.80;;;;;;;;;;5092009;28;20452;-57
2022/05/11 12:50:16;;;;;;;4.60;2.70;;;;;;;;;;5091943;28;20406;-58
2022/05/11 12:52:42;;;;;;;8.03;2.80;;;;;;;;;;5080765;28;20959;-57
2022/05/11 12:55:08;;;;;;;3.23;2.33;;;;;;;;;;5071354;28;20420;-59
2022/05/11 12:57:42;;;;;;;2.73;2.53;;;;;;;;;;5071844;28;20205;-59
2022/05/11 13:00:13;;;;;;;2.70;2.50;;;;;;;;;;5071430;28;20519;-61
2022/05/11 13:02:41;;;;;;;5.70;3.00;;;;;;;;;;5059770;28;20781;-57
2022/05/11 13:05:09;;;;;;;3.87;2.30;;;;;;;;;;5071554;28;20444;-57
2022/05/11 13:07:37;;;;;;;3.20;2.77;;;;;;;;;;5071726;28;20427;-59
2022/05/11 13:10:05;;;;;;;6.60;2.80;;;;;;;;;;5071868;28;20525;-57
2022/05/11 13:12:32;;;;;;;3.97;3.00;;;;;;;;;;5070854;28;20514;-59
2022/05/11 13:14:59;;;;;;;4.00;2.77;;;;;;;;;;5071552;28;20537;-57
2022/05/11 13:17:36;;;;;;;3.73;2.37;;;;;;;;;;5071338;28;20474;-58
2022/05/11 13:20:05;;;;;;;2.60;2.40;;;;;;;;;;5071458;28;20436;-57
2022/05/11 13:22:32;;;;;;;3.63;2.50;;;;;;;;;;5070509;28;20427;-60
2022/05/11 13:25:02;;;;;;;2.67;2.47;;;;;;;;;;5071530;28;20416;-60
2022/05/11 13:27:40;;;;;;;3.40;3.10;;;;;;;;;;5071319;28;20517;-60
2022/05/11 13:30:09;;;;;;;6.90;3.17;;;;;;;;;;5092873;28;20419;-59
2022/05/11 13:32:40;;;;;;;2.50;2.30;;;;;;;;;;5085725;28;20423;-58
2022/05/11 13:35:18;;;;;;;5.87;3.27;;;;;;;;;;5075451;28;20940;-58
2022/05/11 13:37:54;;;;;;;9.53;3.33;;;;;;;;;;5074692;28;20546;-57
2022/05/11 13:40:41;;;;;;;3.30;3.00;;;;;;;;;;5075472;28;20839;-58
2022/05/11 13:43:16;;;;;;;5.50;3.17;;;;;;;;;;5074527;28;20427;-59
2022/05/11 13:45:57;;;;;;;2.57;2.37;;;;;;;;;;5075266;28;20443;-58
2022/05/11 13:48:26;;;;;;;2.93;2.70;;;;;;;;;;5074474;28;20438;-57
2022/05/11 13:50:52;;;;;;;3.17;2.97;;;;;;;;;;5074058;28;20420;-59
2022/05/11 13:53:23;;;;;;;3.03;2.77;;;;;;;;;;5074242;28;20456;-60
2022/05/11 13:55:58;;;;;;;5.93;2.90;;;;;;;;;;5074602;28;20424;-57
2022/05/11 13:58:26;;;;;;;3.00;2.80;;;;;;;;;;5070679;28;20459;-57
2022/05/11 14:00:54;;;;;;;3.00;2.70;;;;;;;;;;5072587;28;20863;-57
2022/05/11 14:03:23;;;;;;;4.00;2.47;;;;;;;;;;5072091;28;20418;-59
2022/05/11 14:05:49;;;;;;;3.40;3.07;;;;;;;;;;5066857;28;20455;-57
2022/05/11 14:08:15;;;;;;;3.63;2.87;;;;;;;;;;5074264;28;20444;-59
2022/05/11 14:10:41;;;;;;;2.67;2.47;;;;;;;;;;5073845;28;20849;-58
2022/05/11 14:13:07;;;;;;;4.00;2.90;;;;;;;;;;5073895;28;20424;-59
2022/05/11 14:15:33;;;;;;;3.00;2.70;;;;;;;;;;5076177;28;20452;-60
2022/05/11 14:17:59;;;;;;;4.07;3.67;;;;;;;;;;5091200;28;20447;-59
2022/05/11 14:20:26;;;;;;;2.87;2.67;;;;;;;;;;5075646;28;20961;-59
2022/05/11 14:22:53;;;;;;;3.20;2.60;;;;;;;;;;5072099;28;20423;-60
2022/05/11 14:25:19;;;;;;;4.80;2.80;;;;;;;;;;5072444;28;20499;-60
2022/05/11 14:27:46;;;;;;;3.60;3.30;;;;;;;;;;5072938;28;20415;-58
2022/05/11 14:30:12;;;;;;;3.90;3.00;;;;;;;;;;5073925;28;20455;-60
2022/05/11 14:32:41;;;;;;;2.60;2.40;;;;;;;;;;5073391;28;20491;-60
2022/05/11 14:35:10;;;;;;;3.50;3.07;;;;;;;;;;5073808;28;20943;-60
2022/05/11 14:37:36;;;;;;;3.90;2.93;;;;;;;;;;5074030;28;20532;-59
2022/05/11 14:40:03;;;;;;;5.67;2.63;;;;;;;;;;5073277;28;20443;-58
2022/05/11 14:42:30;;;;;;;4.90;2.80;;;;;;;;;;5072719;28;20904;-59
2022/05/11 14:44:56;;;;;;;3.17;2.90;;;;;;;;;;5073942;28;20428;-59
2022/05/11 14:47:23;;;;;;;6.10;3.13;;;;;;;;;;5073897;28;20404;-60
2022/05/11 14:49:49;;;;;;;3.00;2.63;;;;;;;;;;5073824;28;20483;-59
2022/05/11 14:52:15;;;;;;;12.40;2.90;;;;;;;;;;5073082;28;20459;-59
2022/05/11 14:54:41;;;;;;;3.33;3.00;;;;;;;;;;5073820;28;20447;-59
2022/05/11 15:02:37;;;;;;;7.80;3.43;;;;;;;;;;5072919;28;20434;-59
2022/05/11 15:05:07;;;;;;;3.30;2.97;;;;;;;;;;5073549;28;20424;-58
2022/05/11 15:07:34;;;;;;;3.40;3.10;;;;;;;;;;5073516;28;20433;-59
2022/05/11 15:10:00;;;;;;;4.07;2.80;;;;;;;;;;5073218;28;20461;-59
2022/05/11 15:15:11;;;;;;;3.03;2.80;;;;;;;;;;5073642;28;20450;-59
2022/05/11 15:17:37;;;;;;;3.53;3.03;;;;;;;;;;5073319;28;20448;-59
2022/05/11 15:20:04;;;;;;;3.93;3.07;;;;;;;;;;5073263;28;20404;-59
2022/05/11 15:22:30;;;;;;;3.53;3.20;;;;;;;;;;5072440;28;20396;-59
2022/05/11 15:24:56;;;;;;;2.70;2.50;;;;;;;;;;5073189;28;20423;-59
2022/05/11 15:27:22;;;;;;;3.70;2.90;;;;;;;;;;5073061;28;20884;-59
2022/05/11 15:29:49;;;;;;;5.13;2.87;;;;;;;;;;5073009;28;20408;-59
2022/05/11 15:32:26;;;;;;;3.27;2.97;;;;;;;;;;5072381;28;20891;-58
2022/05/11 15:34:53;;;;;;;5.47;3.60;;;;;;;;;;5070968;28;20428;-58
2022/05/11 15:37:19;;;;;;;3.20;3.00;;;;;;;;;;5072677;28;20413;-57
2022/05/11 15:39:45;;;;;;;5.23;3.30;;;;;;;;;;5072799;28;20396;-58
2022/05/11 15:42:14;;;;;;;3.77;3.47;;;;;;;;;;5072045;28;20409;-56
2022/05/11 15:44:40;;;;;;;4.03;3.30;;;;;;;;;;5072652;28;20521;-58